Time;durP1;ratioP1;P1;durP2;ratioP2;P2;SDS_P1;SDS_P2;PMS_P1;PMS_P2;Temp;Humidity;BMP_temperature;BMP_pressure;BME280_temperature;BME280_humidity;BME280_pressure;Samples;Min_cycle;Max_cycle;Signal;HPM_P1;HPM_P2
2023/03/23 00:01:22;;;;;;;;;2.67;2.67;;;;;17.03;100.00;100241.88;5078850;27;45176;-77
2023/03/23 00:03:50;;;;;;;;;3.00;2.67;;;;;17.03;100.00;100249.13;5079135;27;45315;-78
2023/03/23 00:06:17;;;;;;;;;2.00;2.00;;;;;16.97;100.00;100240.09;5077000;28;45347;-77
2023/03/23 00:08:45;;;;;;;;;2.00;2.00;;;;;16.97;100.00;100248.16;5079001;27;45358;-77
2023/03/23 00:11:22;;;;;;;;;1.00;1.00;;;;;16.99;100.00;100246.06;5078687;27;45446;-77
2023/03/23 00:13:53;;;;;;;;;3.00;1.67;;;;;16.96;100.00;100251.91;5080764;27;45476;-77
2023/03/23 00:16:28;;;;;;;;;2.67;2.33;;;;;16.95;100.00;100265.56;5080875;27;45374;-78
2023/03/23 00:18:54;;;;;;;;;2.00;2.00;;;;;16.85;100.00;100245.44;5081229;28;45315;-77
2023/03/23 00:21:25;;;;;;;;;1.00;1.00;;;;;16.84;100.00;100265.28;5080706;28;47187;-77
2023/03/23 00:23:51;;;;;;;;;0.00;0.00;;;;;16.83;100.00;100255.59;5082328;27;47174;-77
2023/03/23 00:26:17;;;;;;;;;0.33;0.00;;;;;16.73;100.00;100248.09;5082041;27;45451;-78
2023/03/23 00:28:42;;;;;;;;;0.67;0.67;;;;;16.78;100.00;100253.59;5082319;27;45305;-77
2023/03/23 00:31:09;;;;;;;;;0.67;0.67;;;;;16.69;100.00;100243.41;5081581;27;45312;-77
2023/03/23 00:33:40;;;;;;;;;1.00;1.00;;;;;16.67;100.00;100232.88;5080521;28;47241;-78
2023/03/23 00:36:08;;;;;;;;;1.00;1.00;;;;;16.68;100.00;100239.91;5081527;27;45463;-77
2023/03/23 00:38:34;;;;;;;;;1.00;1.00;;;;;16.61;100.00;100223.88;5081735;27;45297;-78
2023/03/23 00:41:02;;;;;;;;;2.00;1.00;;;;;16.58;100.00;100235.06;5080410;27;46346;-77
2023/03/23 00:43:28;;;;;;;;;2.00;2.00;;;;;16.59;100.00;100250.16;5081832;28;45436;-78
2023/03/23 00:45:55;;;;;;;;;1.00;1.00;;;;;16.57;100.00;100237.97;5080658;28;45837;-78
2023/03/23 00:48:21;;;;;;;;;1.33;1.33;;;;;16.46;100.00;100243.06;5077525;28;45538;-77
2023/03/23 00:50:47;;;;;;;;;2.00;1.33;;;;;16.54;100.00;100241.94;5081364;28;45555;-77
2023/03/23 00:53:13;;;;;;;;;1.33;1.00;;;;;16.49;100.00;100228.41;5081562;27;46445;-77
2023/03/23 00:55:41;;;;;;;;;0.00;0.00;;;;;16.53;100.00;100243.78;5081509;28;45288;-77
2023/03/23 00:58:07;;;;;;;;;2.00;2.00;;;;;16.51;100.00;100224.44;5080347;28;45278;-77
2023/03/23 01:00:32;;;;;;;;;0.00;0.00;;;;;16.47;100.00;100222.44;5080260;28;46292;-77
2023/03/23 01:02:57;;;;;;;;;2.00;2.00;;;;;16.42;100.00;100225.78;5080284;28;53691;-77
2023/03/23 01:05:22;;;;;;;;;1.00;1.00;;;;;16.47;100.00;100215.22;5080122;28;45260;-77
2023/03/23 01:07:48;;;;;;;;;1.00;1.00;;;;;16.46;100.00;100213.56;5081695;28;45312;-77
2023/03/23 01:10:15;;;;;;;;;1.00;1.00;;;;;16.44;100.00;100223.72;5081560;27;46539;-77
2023/03/23 01:12:42;;;;;;;;;2.67;1.67;;;;;16.52;100.00;100211.84;5081353;27;46257;-77
2023/03/23 01:15:08;;;;;;;;;1.00;1.00;;;;;16.55;100.00;100229.34;5081470;27;45256;-77
2023/03/23 01:17:34;;;;;;;;;1.67;1.67;;;;;16.44;100.00;100233.63;5080015;28;45347;-76
2023/03/23 01:19:59;;;;;;;;;1.00;1.00;;;;;16.56;100.00;100229.13;5080071;28;45978;-78
2023/03/23 01:22:25;;;;;;;;;2.67;2.67;;;;;16.61;100.00;100228.47;5079609;28;47076;-77
2023/03/23 01:24:50;;;;;;;;;1.00;1.00;;;;;16.50;100.00;100219.31;5080899;28;45143;-77
2023/03/23 01:27:16;;;;;;;;;3.00;3.00;;;;;16.52;100.00;100241.34;5081241;28;45222;-77
2023/03/23 01:29:41;;;;;;;;;3.00;3.00;;;;;16.51;100.00;100240.53;5079633;27;46262;-77
2023/03/23 01:32:06;;;;;;;;;1.33;1.33;;;;;16.42;100.00;100239.22;5080796;27;52825;-77
2023/03/23 01:34:31;;;;;;;;;2.00;2.00;;;;;16.58;100.00;100245.00;5080985;28;52566;-77
2023/03/23 01:36:57;;;;;;;;;3.00;3.00;;;;;16.57;100.00;100232.63;5079344;28;50700;-77
2023/03/23 01:39:23;;;;;;;;;4.67;3.00;;;;;16.57;100.00;100222.72;5079809;28;46322;-78
2023/03/23 01:41:48;;;;;;;;;2.00;2.00;;;;;16.50;100.00;100214.78;5079364;28;48448;-77
2023/03/23 01:44:16;;;;;;;;;2.33;2.33;;;;;16.61;100.00;100225.78;5080978;28;45280;-77
2023/03/23 01:46:43;;;;;;;;;2.67;2.00;;;;;16.59;100.00;100246.63;5080732;28;45339;-77
2023/03/23 01:49:31;;;;;;;;;3.00;3.00;;;;;16.59;100.00;100242.09;5080962;27;45290;-76
2023/03/23 01:52:06;;;;;;;;;1.00;1.00;;;;;16.57;100.00;100233.44;5080409;28;46270;-77
2023/03/23 01:54:32;;;;;;;;;3.00;3.00;;;;;16.52;100.00;100212.66;5080833;27;45242;-77
2023/03/23 01:57:06;;;;;;;;;1.00;1.00;;;;;16.53;100.00;100216.97;5080797;27;45385;-77
2023/03/23 01:59:33;;;;;;;;;1.00;1.00;;;;;16.50;100.00;100219.31;5080598;27;45169;-77
2023/03/23 02:02:00;;;;;;;;;2.00;2.00;;;;;16.46;100.00;100210.09;5079069;28;47293;-78
2023/03/23 02:04:27;;;;;;;;;1.33;1.33;;;;;16.49;100.00;100205.06;5080493;27;45524;-77
2023/03/23 02:06:54;;;;;;;;;3.67;2.67;;;;;16.50;100.00;100192.47;5080548;27;45843;-77
2023/03/23 02:09:21;;;;;;;;;2.00;2.00;;;;;16.46;100.00;100181.38;5080417;27;46155;-77
2023/03/23 02:11:47;;;;;;;;;1.00;1.00;;;;;16.47;100.00;100188.41;5078864;28;48342;-77
2023/03/23 02:14:14;;;;;;;;;1.33;1.33;;;;;16.42;100.00;100180.22;5080785;27;45422;-76
2023/03/23 02:16:47;;;;;;;;;1.00;1.00;;;;;16.59;100.00;100195.66;5079158;27;45261;-77
2023/03/23 02:19:12;;;;;;;;;1.00;1.00;;;;;16.60;100.00;100178.50;5080442;27;45282;-77
2023/03/23 02:21:38;;;;;;;;;0.00;0.00;;;;;16.58;100.00;100186.78;5078675;28;47184;-77
2023/03/23 02:24:32;;;;;;;;;0.67;0.67;;;;;16.59;100.00;100182.25;5080230;28;45361;-76
2023/03/23 02:27:00;;;;;;;;;1.33;1.33;;;;;16.60;100.00;100178.50;5062289;27;45449;-77
2023/03/23 02:29:34;;;;;;;;;0.00;0.00;;;;;16.60;100.00;100186.56;5074882;28;45447;-77
2023/03/23 02:32:25;;;;;;;;;1.00;1.00;;;;;16.59;100.00;100193.81;5073056;27;46481;-77
2023/03/23 02:34:56;;;;;;;;;1.00;1.00;;;;;16.57;100.00;100193.22;5075658;28;45411;-77
2023/03/23 02:37:32;;;;;;;;;2.33;2.33;;;;;16.44;100.00;100186.16;5074668;28;45335;-77
2023/03/23 02:40:11;;;;;;;;;2.67;2.67;;;;;16.47;100.00;100201.81;5079925;27;45296;-78
2023/03/23 02:42:39;;;;;;;;;0.00;0.00;;;;;16.48;100.00;100205.28;5080013;27;45634;-77
2023/03/23 02:45:08;;;;;;;;;1.00;1.00;;;;;16.53;100.00;100219.66;5080040;27;45284;-76
2023/03/23 02:47:37;;;;;;;;;1.00;1.00;;;;;16.52;100.00;100231.44;5078928;28;45378;-77
2023/03/23 02:50:04;;;;;;;;;2.00;2.00;;;;;16.51;100.00;100231.66;5079690;28;45457;-77
2023/03/23 02:52:32;;;;;;;;;2.00;2.00;;;;;16.49;100.00;100221.16;5077434;28;47283;-77
2023/03/23 02:54:59;;;;;;;;;1.67;1.67;;;;;16.51;100.00;100213.72;5078427;28;45367;-77
2023/03/23 02:57:26;;;;;;;;;1.33;1.33;;;;;16.48;100.00;100213.34;5080060;27;45331;-77
2023/03/23 02:59:52;;;;;;;;;0.67;0.67;;;;;16.49;100.00;100229.22;5079699;27;45241;-77
2023/03/23 03:02:21;;;;;;;;;2.00;1.00;;;;;16.52;100.00;100223.38;5078512;28;46934;-77
2023/03/23 03:04:54;;;;;;;;;1.00;1.00;;;;;16.59;100.00;100230.53;5078320;28;46062;-77
2023/03/23 03:07:52;;;;;;;;;1.00;0.33;;;;;16.60;100.00;100233.00;5079633;27;45291;-77
2023/03/23 03:10:43;;;;;;;;;1.00;1.00;;;;;16.59;100.00;100226.00;5077980;28;46803;-77
2023/03/23 03:13:22;;;;;;;;;2.00;2.00;;;;;16.53;100.00;100206.25;5078268;28;47287;-78
2023/03/23 03:16:00;;;;;;;;;1.33;1.33;;;;;16.60;100.00;100219.59;5079552;27;45228;-77
2023/03/23 03:18:37;;;;;;;;;2.00;1.67;;;;;16.53;100.00;100214.28;5079597;27;45426;-77
2023/03/23 03:21:12;;;;;;;;;2.00;2.00;;;;;16.52;100.00;100209.16;5079439;27;45313;-77
2023/03/23 03:23:41;;;;;;;;;2.00;2.00;;;;;16.57;100.00;100205.78;5079201;28;45447;-77
2023/03/23 03:26:09;;;;;;;;;2.67;2.00;;;;;16.53;100.00;100189.34;5077791;28;45393;-77
2023/03/23 03:28:35;;;;;;;;;1.00;1.00;;;;;16.50;100.00;100187.94;5079424;27;45453;-77
2023/03/23 03:31:04;;;;;;;;;3.00;1.67;;;;;16.58;100.00;100186.00;5077366;28;47026;-77
2023/03/23 03:33:34;;;;;;;;;1.67;1.67;;;;;16.57;100.00;100187.00;5079411;27;46680;-77
2023/03/23 03:36:03;;;;;;;;;2.67;2.00;;;;;16.61;100.00;100188.22;5079052;28;45263;-77
2023/03/23 03:38:29;;;;;;;;;1.00;1.00;;;;;16.64;100.00;100198.50;5077985;28;45269;-77
2023/03/23 03:40:56;;;;;;;;;0.00;0.00;;;;;16.65;100.00;100197.44;5077669;28;47303;-76
2023/03/23 03:43:21;;;;;;;;;1.00;1.00;;;;;16.63;100.00;100202.19;5079293;27;45492;-77
2023/03/23 03:45:46;;;;;;;;;1.67;1.00;;;;;16.70;100.00;100207.50;5079141;27;45318;-77
2023/03/23 03:48:12;;;;;;;;;2.00;2.00;;;;;16.71;100.00;100195.69;5080740;27;45389;-78
2023/03/23 03:50:38;;;;;;;;;1.67;1.67;;;;;16.63;100.00;100191.47;5082533;27;45333;-77
2023/03/23 03:53:05;;;;;;;;;1.33;1.33;;;;;16.74;100.00;100200.63;5082344;27;45381;-77
2023/03/23 03:55:35;;;;;;;;;1.00;1.00;;;;;16.60;100.00;100184.72;5082683;27;45310;-77
2023/03/23 03:58:01;;;;;;;;;3.00;1.33;;;;;16.54;100.00;100190.97;5081165;28;45547;-77
2023/03/23 04:00:26;;;;;;;;;3.00;2.00;;;;;16.45;100.00;100179.75;5082736;27;45380;-77
2023/03/23 04:02:53;;;;;;;;;3.00;2.00;;;;;16.42;100.00;100190.94;5080711;27;48093;-77
2023/03/23 04:05:20;;;;;;;;;2.00;2.00;;;;;16.48;100.00;100203.44;5082542;28;45325;-77
2023/03/23 04:07:49;;;;;;;;;3.00;3.00;;;;;16.44;100.00;100194.22;5082455;27;45250;-77
2023/03/23 04:10:14;;;;;;;;;2.00;2.00;;;;;16.38;100.00;100195.13;5082572;28;45338;-78
2023/03/23 04:12:40;;;;;;;;;1.67;1.00;;;;;16.24;100.00;100197.13;5082153;27;45154;-78
2023/03/23 04:15:07;;;;;;;;;2.00;2.00;;;;;16.21;100.00;100189.53;5082201;28;45358;-77
2023/03/23 04:17:34;;;;;;;;;2.00;2.00;;;;;16.24;100.00;100214.06;5082556;27;45462;-77
2023/03/23 04:20:00;;;;;;;;;2.67;2.67;;;;;16.23;100.00;100217.78;5081136;28;45450;-77
2023/03/23 04:22:29;;;;;;;;;2.00;1.67;;;;;16.17;100.00;100212.50;5081897;27;46507;-77
2023/03/23 04:25:00;;;;;;;;;1.67;1.67;;;;;16.15;100.00;100213.53;5074417;27;45223;-77
2023/03/23 04:27:27;;;;;;;;;2.00;2.00;;;;;16.06;100.00;100212.19;5062097;28;45405;-78
2023/03/23 04:29:54;;;;;;;;;4.00;2.00;;;;;16.08;100.00;100203.94;5073643;27;45392;-78
2023/03/23 04:32:19;;;;;;;;;1.00;1.00;;;;;16.15;100.00;100223.44;5076841;28;46342;-78
2023/03/23 04:34:44;;;;;;;;;1.33;1.33;;;;;16.18;100.00;100217.63;5081929;28;50729;-79
2023/03/23 04:37:10;;;;;;;;;3.00;3.00;;;;;16.06;100.00;100209.53;5081615;27;45288;-78
2023/03/23 04:39:35;;;;;;;;;1.00;1.00;;;;;16.11;100.00;100224.94;5081742;27;48401;-78
2023/03/23 04:42:01;;;;;;;;;1.00;1.00;;;;;16.08;100.00;100236.09;5081831;27;45335;-78
2023/03/23 04:44:28;;;;;;;;;2.00;2.00;;;;;16.06;100.00;100240.84;5082086;27;45333;-78
2023/03/23 04:46:53;;;;;;;;;2.33;2.33;;;;;16.05;100.00;100231.19;5081338;27;45356;-78
2023/03/23 04:49:21;;;;;;;;;2.33;1.00;;;;;16.03;100.00;100232.25;5080637;28;45930;-78
2023/03/23 04:51:47;;;;;;;;;3.00;3.00;;;;;16.00;100.00;100239.91;5080424;27;45473;-78
2023/03/23 04:54:12;;;;;;;;;2.67;2.67;;;;;16.02;100.00;100238.63;5080720;28;45238;-78
2023/03/23 04:56:38;;;;;;;;;3.00;3.00;;;;;16.02;100.00;100246.66;5081306;28;45136;-78
2023/03/23 04:59:03;;;;;;;;;2.00;2.00;;;;;16.05;100.00;100245.41;5081230;27;45313;-78
2023/03/23 05:01:29;;;;;;;;;1.67;1.33;;;;;16.06;100.00;100260.44;5081312;28;54063;-77
2023/03/23 05:03:54;;;;;;;;;1.33;1.33;;;;;16.05;100.00;100249.94;5081713;28;45342;-76
2023/03/23 05:06:20;;;;;;;;;3.33;3.00;;;;;16.07;100.00;100251.34;5080172;28;45190;-77
2023/03/23 05:08:45;;;;;;;;;2.00;2.00;;;;;16.10;100.00;100250.91;5080319;28;47052;-77
2023/03/23 05:11:10;;;;;;;;;1.00;1.00;;;;;16.04;100.00;100251.78;5081156;27;53642;-78
2023/03/23 05:13:36;;;;;;;;;1.00;1.00;;;;;16.01;100.00;100244.19;5081464;27;45296;-77
2023/03/23 05:16:05;;;;;;;;;1.00;1.00;;;;;16.02;100.00;100257.38;5081491;27;45285;-77
2023/03/23 05:18:31;;;;;;;;;1.33;1.33;;;;;15.96;100.00;100250.25;5081275;27;46839;-78
2023/03/23 05:21:00;;;;;;;;;1.00;1.00;;;;;16.01;100.00;100260.28;5080928;28;45566;-77
2023/03/23 05:23:25;;;;;;;;;2.00;1.33;;;;;15.94;100.00;100240.75;5081188;27;45350;-77
2023/03/23 05:25:55;;;;;;;;;1.00;1.00;;;;;16.03;100.00;100255.53;5081088;28;45354;-77
2023/03/23 05:28:21;;;;;;;;;1.67;1.67;;;;;16.02;100.00;100252.03;5080064;28;46207;-78
2023/03/23 05:30:47;;;;;;;;;4.00;2.67;;;;;16.02;100.00;100251.22;5065041;27;45341;-77
2023/03/23 05:33:12;;;;;;;;;1.00;1.00;;;;;16.01;100.00;100253.06;5060791;28;45310;-77
2023/03/23 05:35:37;;;;;;;;;1.33;1.33;;;;;16.01;100.00;100237.00;5063019;28;45260;-78
2023/03/23 05:38:04;;;;;;;;;3.00;3.00;;;;;16.04;100.00;100241.06;5080693;28;55669;-77
2023/03/23 05:40:29;;;;;;;;;2.00;2.00;;;;;16.20;100.00;100239.69;5081159;27;45938;-77
2023/03/23 05:42:57;;;;;;;;;1.00;1.00;;;;;16.23;100.00;100236.56;5081706;28;45289;-76
2023/03/23 05:45:22;;;;;;;;;1.00;1.00;;;;;16.25;100.00;100247.06;5081173;27;45468;-79
2023/03/23 05:47:48;;;;;;;;;2.00;2.00;;;;;16.23;100.00;100251.81;5080995;27;45330;-78
2023/03/23 05:50:13;;;;;;;;;3.67;2.00;;;;;16.22;100.00;100253.66;5080613;28;45984;-77
2023/03/23 05:52:39;;;;;;;;;2.00;1.67;;;;;16.26;100.00;100264.78;5079341;28;45444;-77
2023/03/23 05:55:05;;;;;;;;;2.00;2.00;;;;;16.27;100.00;100258.34;5078477;28;45392;-78
2023/03/23 05:57:31;;;;;;;;;1.67;1.67;;;;;16.12;100.00;100264.09;5080563;28;45282;-77
2023/03/23 05:59:57;;;;;;;;;2.00;2.00;;;;;16.20;100.00;100255.78;5065643;27;48216;-78
2023/03/23 06:02:23;;;;;;;;;2.00;1.00;;;;;16.01;100.00;100238.84;5079504;28;45947;-80
2023/03/23 06:04:49;;;;;;;;;1.33;1.33;;;;;16.09;100.00;100248.44;5081641;27;45268;-80
2023/03/23 06:07:15;;;;;;;;;2.67;2.67;;;;;16.10;100.00;100240.19;5084669;27;45354;-81
2023/03/23 06:09:41;;;;;;;;;2.00;2.00;;;;;15.93;100.00;100245.31;5081737;27;45292;-81
2023/03/23 06:12:07;;;;;;;;;1.00;1.00;;;;;15.93;100.00;100263.22;5076761;28;45398;-79
2023/03/23 06:14:33;;;;;;;;;2.00;2.00;;;;;15.88;100.00;100270.09;5073119;28;45446;-81
2023/03/23 06:16:58;;;;;;;;;2.00;2.00;;;;;16.01;100.00;100262.97;5067498;28;45461;-79
2023/03/23 06:19:26;;;;;;;;;2.67;2.67;;;;;15.88;100.00;100264.72;5082916;28;51330;-80
2023/03/23 06:21:52;;;;;;;;;3.33;3.33;;;;;15.82;100.00;100259.41;5081935;27;45141;-79
2023/03/23 06:24:17;;;;;;;;;2.33;2.33;;;;;15.82;100.00;100262.94;5083030;27;45465;-80
2023/03/23 06:26:43;;;;;;;;;3.67;2.33;;;;;15.92;100.00;100267.75;5083515;27;51106;-80
2023/03/23 06:29:12;;;;;;;;;3.33;3.33;;;;;16.03;100.00;100268.94;5087726;27;45514;-80
2023/03/23 06:31:42;;;;;;;;;2.67;2.67;;;;;16.03;100.00;100260.88;5088443;27;45490;-81
2023/03/23 06:34:08;;;;;;;;;1.00;1.00;;;;;16.03;100.00;100263.56;5087651;28;45451;-79
2023/03/23 06:36:34;;;;;;;;;3.33;3.33;;;;;15.78;100.00;100251.03;5085616;28;46031;-80
2023/03/23 06:39:00;;;;;;;;;1.33;1.33;;;;;15.80;100.00;100267.69;5087638;28;47096;-80
2023/03/23 06:41:25;;;;;;;;;3.33;2.33;;;;;15.89;100.00;100261.00;5089121;27;45294;-79
2023/03/23 06:43:51;;;;;;;;;3.00;3.00;;;;;15.96;100.00;100262.78;5086719;27;45328;-80
2023/03/23 06:46:16;;;;;;;;;2.33;2.33;;;;;15.93;100.00;100265.91;5085194;28;45307;-79
2023/03/23 06:48:42;;;;;;;;;2.00;2.00;;;;;16.01;100.00;100271.00;5087679;28;46702;-80
2023/03/23 06:51:07;;;;;;;;;3.33;2.33;;;;;15.98;100.00;100260.75;5078533;28;45729;-81
2023/03/23 06:53:33;;;;;;;;;5.00;4.00;;;;;16.05;100.00;100260.66;5080392;27;45243;-79
2023/03/23 06:55:59;;;;;;;;;2.00;2.00;;;;;16.04;100.00;100270.56;5079604;28;47248;-79
2023/03/23 06:58:24;;;;;;;;;3.33;3.33;;;;;16.07;100.00;100274.69;5080064;28;47348;-79
2023/03/23 07:00:58;;;;;;;;;2.00;2.00;;;;;15.97;100.00;100269.81;5077515;28;53120;-79
2023/03/23 07:03:25;;;;;;;;;2.00;2.00;;;;;16.04;100.00;100267.88;5067639;28;45503;-79
2023/03/23 07:05:50;;;;;;;;;2.00;2.00;;;;;16.08;100.00;100284.34;5077006;27;46119;-80
2023/03/23 07:08:16;;;;;;;;;4.33;2.67;;;;;15.96;100.00;100271.69;5074888;27;45826;-80
2023/03/23 07:10:41;;;;;;;;;3.00;2.33;;;;;16.01;100.00;100273.69;5074670;27;45642;-80
2023/03/23 07:13:07;;;;;;;;;2.00;2.00;;;;;15.96;100.00;100284.22;5076672;27;45946;-79
2023/03/23 07:15:32;;;;;;;;;2.33;2.33;;;;;15.96;100.00;100297.63;5075330;28;47246;-81
2023/03/23 07:17:58;;;;;;;;;2.00;2.00;;;;;15.98;100.00;100292.91;5075247;28;47286;-79
2023/03/23 07:20:23;;;;;;;;;5.33;5.33;;;;;15.99;100.00;100292.69;5074721;27;45613;-77
2023/03/23 07:22:49;;;;;;;;;3.33;3.33;;;;;15.99;100.00;100291.88;5076157;28;45398;-78
2023/03/23 07:25:15;;;;;;;;;3.33;3.33;;;;;16.00;100.00;100302.38;5076261;27;45500;-78
2023/03/23 07:27:41;;;;;;;;;2.67;2.67;;;;;16.07;100.00;100302.28;5075543;27;45494;-78
2023/03/23 07:30:08;;;;;;;;;3.00;3.00;;;;;16.20;100.00;100293.31;5074702;28;45524;-79
2023/03/23 07:32:33;;;;;;;;;2.67;2.00;;;;;16.33;100.00;100310.25;5073966;27;45496;-78
2023/03/23 07:34:58;;;;;;;;;2.33;2.33;;;;;16.28;100.00;100311.75;5075560;27;51088;-79
2023/03/23 07:37:24;;;;;;;;;3.00;3.00;;;;;16.27;100.00;100307.44;5073949;28;48950;-78
2023/03/23 07:39:49;;;;;;;;;4.00;3.67;;;;;16.29;100.00;100307.22;5076424;27;45424;-78
2023/03/23 07:42:15;;;;;;;;;3.00;3.00;;;;;16.26;100.00;100300.44;5074855;27;45479;-78
2023/03/23 07:44:40;;;;;;;;;3.00;3.00;;;;;16.11;100.00;100289.28;5075616;27;45429;-78
2023/03/23 07:47:05;;;;;;;;;4.00;4.00;;;;;16.16;100.00;100302.81;5073393;27;46063;-78
2023/03/23 07:49:31;;;;;;;;;2.33;2.33;;;;;16.19;100.00;100296.22;5072272;28;45432;-79
2023/03/23 07:51:57;;;;;;;;;4.67;3.33;;;;;16.22;100.00;100296.56;5073444;28;45434;-79
2023/03/23 07:54:23;;;;;;;;;3.00;3.00;;;;;16.27;100.00;100306.63;5074249;28;46389;-78
2023/03/23 07:56:48;;;;;;;;;4.00;4.00;;;;;16.22;100.00;100309.16;5071059;28;48077;-78
2023/03/23 07:59:14;;;;;;;;;2.67;2.67;;;;;16.37;100.00;100319.53;5067868;28;48571;-79
2023/03/23 08:01:39;;;;;;;;;4.33;3.67;;;;;16.39;100.00;100312.88;5073587;27;45567;-77
2023/03/23 08:04:05;;;;;;;;;2.33;2.33;;;;;16.41;100.00;100328.75;5072123;28;45879;-77
2023/03/23 08:06:34;;;;;;;;;2.00;2.00;;;;;16.46;100.00;100336.94;5074266;27;45432;-78
2023/03/23 08:09:02;;;;;;;;;2.00;2.00;;;;;16.38;100.00;100335.38;5071920;28;45908;-77
2023/03/23 08:11:28;;;;;;;;;2.33;2.00;;;;;16.45;100.00;100329.13;5074596;27;45875;-77
2023/03/23 08:13:53;;;;;;;;;2.00;1.67;;;;;16.46;100.00;100320.84;5072975;27;56720;-78
2023/03/23 08:16:19;;;;;;;;;3.00;3.00;;;;;16.51;100.00;100341.63;5074408;27;47489;-77
2023/03/23 08:18:45;;;;;;;;;2.33;2.33;;;;;16.51;100.00;100337.09;5072601;28;45424;-77
2023/03/23 08:21:11;;;;;;;;;2.67;2.33;;;;;16.60;100.00;100334.09;5075061;27;45528;-77
2023/03/23 08:23:37;;;;;;;;;3.00;3.00;;;;;16.66;100.00;100325.16;5072704;28;45877;-79
2023/03/23 08:26:07;;;;;;;;;2.67;2.67;;;;;16.66;100.00;100335.88;5070929;28;47006;-80
2023/03/23 08:28:34;;;;;;;;;4.33;4.33;;;;;16.71;100.00;100337.91;5073045;28;45490;-80
2023/03/23 08:30:59;;;;;;;;;3.00;3.00;;;;;16.71;100.00;100343.28;5074036;27;46001;-77
2023/03/23 08:33:25;;;;;;;;;2.00;2.00;;;;;16.78;100.00;100326.06;5074988;28;45345;-77
2023/03/23 08:35:58;;;;;;;;;3.00;3.00;;;;;16.85;100.00;100317.09;5075912;28;47982;-76
2023/03/23 08:38:24;;;;;;;;;4.00;4.00;;;;;16.90;100.00;100331.47;5070128;28;45426;-77
2023/03/23 08:40:50;;;;;;;;;3.33;3.00;;;;;17.00;100.00;100333.59;5075874;28;45817;-77
2023/03/23 08:43:16;;;;;;;;;4.00;2.33;;;;;16.98;100.00;100318.78;5077188;28;45477;-78
2023/03/23 08:45:42;;;;;;;;;2.00;2.00;;;;;17.02;100.00;100341.44;5076347;28;47496;-77
2023/03/23 08:48:08;;;;;;;;;5.00;4.33;;;;;17.01;100.00;100335.25;5077971;27;45386;-78
2023/03/23 08:50:34;;;;;;;;;3.00;3.00;;;;;17.00;100.00;100332.81;5078141;28;45309;-79
2023/03/23 08:52:59;;;;;;;;;2.00;2.00;;;;;17.06;100.00;100339.91;5076251;27;45408;-79
2023/03/23 08:55:26;;;;;;;;;3.00;3.00;;;;;17.08;100.00;100345.09;5073643;28;47260;-77
2023/03/23 08:57:51;;;;;;;;;4.00;3.00;;;;;17.24;100.00;100344.44;5078183;27;45516;-78
2023/03/23 09:00:20;;;;;;;;;4.67;3.00;;;;;17.18;100.00;100340.00;5078304;27;46668;-79
2023/03/23 09:02:48;;;;;;;;;4.00;2.00;;;;;17.18;100.00;100350.72;5074513;28;45442;-77
2023/03/23 09:05:19;;;;;;;;;3.33;3.00;;;;;17.29;100.00;100349.16;5077428;27;45556;-77
2023/03/23 09:07:51;;;;;;;;;3.67;3.67;;;;;17.33;100.00;100352.19;5077913;28;45605;-78
2023/03/23 09:10:18;;;;;;;;;5.33;4.67;;;;;17.36;100.00;100346.38;5078455;28;45519;-77
2023/03/23 09:12:45;;;;;;;;;3.00;3.00;;;;;17.42;100.00;100357.00;5075274;27;45539;-77
2023/03/23 09:15:13;;;;;;;;;2.00;2.00;;;;;17.42;100.00;100350.84;5077784;27;46051;-77
2023/03/23 09:17:41;;;;;;;;;3.00;2.00;;;;;17.40;100.00;100360.97;5074790;27;46089;-78
2023/03/23 09:20:14;;;;;;;;;3.67;3.67;;;;;17.38;100.00;100350.47;5075632;28;46563;-78
2023/03/23 09:22:42;;;;;;;;;1.67;1.00;;;;;17.39;100.00;100341.34;5075247;27;45899;-77
2023/03/23 09:25:08;;;;;;;;;3.33;3.00;;;;;17.38;100.00;100330.84;5075915;27;45817;-77
2023/03/23 09:27:36;;;;;;;;;2.00;2.00;;;;;17.34;100.00;100326.97;5075963;28;45500;-76
2023/03/23 09:30:05;;;;;;;;;5.00;3.33;;;;;17.36;100.00;100332.94;5077147;27;45519;-77
2023/03/23 09:32:33;;;;;;;;;4.00;3.00;;;;;17.37;100.00;100319.28;5077175;27;45437;-77
2023/03/23 09:34:58;;;;;;;;;4.00;3.00;;;;;17.48;100.00;100325.72;5076268;28;47832;-77
2023/03/23 09:37:23;;;;;;;;;4.33;3.00;;;;;17.46;100.00;100322.47;5075756;28;53681;-76
2023/03/23 09:39:50;;;;;;;;;3.00;3.00;;;;;17.46;100.00;100319.78;5077974;27;45230;-77
2023/03/23 09:42:24;;;;;;;;;2.00;2.00;;;;;17.60;100.00;100325.72;5077832;28;46070;-77
2023/03/23 09:45:09;;;;;;;;;2.00;2.00;;;;;17.70;100.00;100325.19;5076938;27;46227;-77
2023/03/23 09:47:52;;;;;;;;;4.00;4.00;;;;;17.74;100.00;100331.72;5075881;27;45843;-76
2023/03/23 09:50:31;;;;;;;;;2.00;2.00;;;;;17.96;100.00;100339.19;5077919;28;45520;-77
2023/03/23 09:53:11;;;;;;;;;2.67;2.33;;;;;18.00;100.00;100356.53;5077259;27;45438;-77
2023/03/23 09:55:37;;;;;;;;;3.67;2.33;;;;;17.94;100.00;100362.00;5072566;27;45432;-78
2023/03/23 09:58:58;;;;;;;;;6.00;2.00;;;;;18.02;100.00;100359.78;5073916;28;45614;-77
2023/03/23 10:01:30;;;;;;;;;4.00;2.00;;;;;18.19;100.00;100366.38;5017183;28;45378;-78
2023/03/23 10:04:05;;;;;;;;;4.00;4.00;;;;;18.25;100.00;100360.88;5071581;27;45460;-78
2023/03/23 10:06:30;;;;;;;;;4.00;3.33;;;;;18.26;100.00;100362.50;5076777;27;45492;-77
2023/03/23 10:09:00;;;;;;;;;4.67;3.67;;;;;18.41;100.00;100363.91;5076631;27;45369;-78
2023/03/23 10:11:54;;;;;;;;;5.00;5.00;;;;;18.43;100.00;100377.91;5075825;27;45445;-77
2023/03/23 10:14:37;;;;;;;;;4.00;3.00;;;;;18.58;100.00;100363.97;5070721;28;45450;-76
2023/03/23 10:17:05;;;;;;;;;3.00;2.67;;;;;18.66;100.00;100349.34;5075126;28;45474;-77
2023/03/23 10:19:56;;;;;;;;;4.00;4.00;;;;;18.76;100.00;100354.91;5076329;27;45843;-77
2023/03/23 10:22:29;;;;;;;;;4.33;3.33;;;;;18.83;100.00;100352.09;5074090;28;45305;-77
2023/03/23 10:25:06;;;;;;;;;4.33;4.33;;;;;18.85;98.18;100344.59;5076872;27;45738;-77
2023/03/23 10:28:04;;;;;;;;;3.67;3.00;;;;;18.74;98.87;100354.31;5075120;28;47581;-77
2023/03/23 10:30:39;;;;;;;;;3.00;3.00;;;;;18.91;98.37;100361.66;5075023;28;45318;-78
2023/03/23 10:33:20;;;;;;;;;3.00;3.00;;;;;19.11;98.76;100352.38;5075833;27;45791;-76
2023/03/23 10:36:09;;;;;;;;;5.00;4.33;;;;;19.33;97.99;100365.97;5072481;28;45448;-77
2023/03/23 10:38:49;;;;;;;;;1.67;1.67;;;;;19.42;96.39;100367.22;5076567;28;46563;-76
2023/03/23 10:41:19;;;;;;;;;4.33;4.33;;;;;19.57;95.17;100363.13;5076299;28;45810;-77
2023/03/23 10:43:49;;;;;;;;;5.00;5.00;;;;;19.48;93.77;100365.41;5070612;27;45745;-77
2023/03/23 10:46:36;;;;;;;;;3.67;3.00;;;;;19.36;94.11;100354.69;5073343;27;46066;-77
2023/03/23 10:49:09;;;;;;;;;3.67;3.00;;;;;19.32;94.48;100352.72;5074138;28;45397;-77
2023/03/23 10:51:37;;;;;;;;;3.67;3.00;;;;;19.34;94.09;100323.69;5076034;28;45504;-77
2023/03/23 10:54:05;;;;;;;;;3.33;2.67;;;;;19.39;95.67;100353.38;5074475;28;45371;-77
2023/03/23 10:56:44;;;;;;;;;4.00;4.00;;;;;19.45;95.58;100365.91;5075101;27;45527;-77
2023/03/23 10:59:32;;;;;;;;;4.00;4.00;;;;;19.54;97.26;100367.13;5074385;28;48371;-77
2023/03/23 11:02:03;;;;;;;;;5.00;5.00;;;;;19.61;95.97;100339.22;5075429;28;45241;-76
2023/03/23 11:04:31;;;;;;;;;3.67;3.67;;;;;19.64;95.35;100333.34;5077194;27;45525;-79
2023/03/23 11:07:02;;;;;;;;;4.00;3.33;;;;;19.70;94.55;100347.72;5072329;27;45629;-77
2023/03/23 11:09:40;;;;;;;;;3.33;3.00;;;;;19.79;92.09;100352.44;5073486;28;45224;-77
2023/03/23 11:12:17;;;;;;;;;4.33;4.33;;;;;19.78;93.06;100320.31;5080451;27;45290;-79
2023/03/23 11:14:44;;;;;;;;;6.00;5.33;;;;;19.83;93.28;100322.28;5078707;28;45281;-78
2023/03/23 11:17:24;;;;;;;;;4.33;3.67;;;;;19.98;91.91;100333.31;5080052;28;46065;-80
2023/03/23 11:19:51;;;;;;;;;5.00;5.00;;;;;19.97;92.53;100341.66;5078459;28;47136;-78
2023/03/23 11:22:25;;;;;;;;;5.00;4.67;;;;;20.00;90.86;100344.69;5079370;27;45529;-78
2023/03/23 11:24:59;;;;;;;;;2.67;2.33;;;;;19.96;89.33;100354.31;5078452;28;45293;-79